createdAt,value
2018-01-05T00:01:14.344Z,98.11
2018-01-05T00:03:41.917Z,98.08
2018-01-05T00:06:09.483Z,98.10
2018-01-05T00:08:37.071Z,98.09
2018-01-05T00:11:04.641Z,97.97
2018-01-05T00:13:32.231Z,98.18
2018-01-05T00:15:59.848Z,98.10
2018-01-05T00:18:27.438Z,98.36
2018-01-05T00:20:55.014Z,98.47
2018-01-05T00:23:22.626Z,98.55
2018-01-05T00:25:50.178Z,98.59
2018-01-05T00:28:17.751Z,99.13
2018-01-05T00:30:45.415Z,99.84
2018-01-05T00:33:12.988Z,99.76
2018-01-05T00:35:40.564Z,99.55
2018-01-05T00:38:08.185Z,99.54
2018-01-05T00:40:35.783Z,99.45
2018-01-05T00:43:03.361Z,99.71
2018-01-05T00:45:30.976Z,99.39
2018-01-05T00:47:58.569Z,99.25
2018-01-05T00:50:26.162Z,98.96
2018-01-05T00:52:53.777Z,99.16
2018-01-05T00:55:21.370Z,99.28
2018-01-05T00:57:48.948Z,99.16
2018-01-05T01:00:16.546Z,99.07
2018-01-05T01:02:44.119Z,99.13
2018-01-05T01:05:11.706Z,99.01
2018-01-05T01:07:39.330Z,98.87
2018-01-05T01:10:06.916Z,98.72
2018-01-05T01:12:34.504Z,98.83
2018-01-05T01:15:02.189Z,98.77
2018-01-05T01:17:29.772Z,98.77
2018-01-05T01:19:57.347Z,98.57
2018-01-05T01:22:24.966Z,98.62
2018-01-05T01:24:52.555Z,98.77
2018-01-05T01:27:20.136Z,99.08
2018-01-05T01:29:47.763Z,98.93
2018-01-05T01:32:15.333Z,98.94
2018-01-05T01:34:42.903Z,98.85
2018-01-05T01:37:10.653Z,98.77
2018-01-05T01:39:38.202Z,98.81
2018-01-05T01:42:05.752Z,98.72
2018-01-05T01:44:33.368Z,98.74
2018-01-05T01:47:01.971Z,98.74
2018-01-05T01:49:29.561Z,98.72
2018-01-05T01:51:57.197Z,98.89
2018-01-05T01:54:24.776Z,98.89
2018-01-05T01:56:52.344Z,99.15
2018-01-05T01:59:19.963Z,98.87
2018-01-05T02:01:47.527Z,99.11
2018-01-05T02:04:15.105Z,99.06
2018-01-05T02:06:42.729Z,99.06
2018-01-05T02:09:10.308Z,98.84
2018-01-05T02:11:37.889Z,98.58
2018-01-05T02:14:05.510Z,98.59
2018-01-05T02:16:33.097Z,98.45
2018-01-05T02:19:00.706Z,98.13
2018-01-05T02:21:28.313Z,98.13
2018-01-05T02:23:56.118Z,98.34
2018-01-05T02:26:23.702Z,98.29
2018-01-05T02:28:51.636Z,98.63
2018-01-05T02:31:19.223Z,98.84
2018-01-05T02:33:46.815Z,98.60
2018-01-05T02:36:14.431Z,98.24
2018-01-05T02:38:42.021Z,98.26
2018-01-05T02:41:09.593Z,98.28
2018-01-05T02:43:37.196Z,98.36
2018-01-05T02:46:04.787Z,98.12
2018-01-05T02:48:32.353Z,98.02
2018-01-05T02:50:59.967Z,98.05
2018-01-05T02:53:27.584Z,98.13
2018-01-05T02:55:55.463Z,98.19
2018-01-05T02:58:23.096Z,98.26
2018-01-05T03:00:50.683Z,98.33
2018-01-05T03:03:18.270Z,98.13
2018-01-05T03:05:45.899Z,97.96
2018-01-05T03:08:13.490Z,98.11
2018-01-05T03:10:41.219Z,98.01
2018-01-05T03:13:08.830Z,98.27
2018-01-05T03:15:36.427Z,98.49
2018-01-05T03:18:04.003Z,98.54
2018-01-05T03:20:31.632Z,98.48
2018-01-05T03:22:59.210Z,98.48
2018-01-05T03:25:26.786Z,98.46
2018-01-05T03:27:54.399Z,98.24
2018-01-05T03:30:21.990Z,98.20
2018-01-05T03:32:49.565Z,98.15
2018-01-05T03:35:17.177Z,98.24
2018-01-05T03:37:44.752Z,98.21
2018-01-05T03:40:12.320Z,98.25
2018-01-05T03:42:39.941Z,98.31
2018-01-05T03:45:07.512Z,98.16
2018-01-05T03:47:35.080Z,98.21
2018-01-05T03:50:02.779Z,98.17
2018-01-05T03:52:30.368Z,98.16
2018-01-05T03:54:57.978Z,98.05
2018-01-05T03:57:25.622Z,98.07
2018-01-05T03:59:53.189Z,98.18
2018-01-05T04:02:20.778Z,98.24
2018-01-05T04:04:48.394Z,98.75
2018-01-05T04:07:15.979Z,99.26
2018-01-05T04:09:43.565Z,99.22
2018-01-05T04:12:11.181Z,99.13
2018-01-05T04:14:38.790Z,99.26
2018-01-05T04:17:06.383Z,98.95
2018-01-05T04:19:34.007Z,98.97
2018-01-05T04:22:01.629Z,98.90
2018-01-05T04:24:29.216Z,98.82
2018-01-05T04:26:56.828Z,98.70
2018-01-05T04:29:24.406Z,98.75
2018-01-05T04:31:51.998Z,98.65
2018-01-05T04:34:19.611Z,98.53
2018-01-05T04:36:47.187Z,98.35
2018-01-05T04:39:14.765Z,98.17
2018-01-05T04:41:42.407Z,98.11
2018-01-05T04:44:09.993Z,98.10
2018-01-05T04:46:37.577Z,98.12
2018-01-05T04:49:05.193Z,98.01
2018-01-05T04:51:32.796Z,97.97
2018-01-05T04:54:00.389Z,97.96
2018-01-05T04:56:28.100Z,97.82
2018-01-05T04:58:55.683Z,97.74
2018-01-05T05:01:23.265Z,97.62
2018-01-05T05:03:50.866Z,97.60
2018-01-05T05:06:18.444Z,97.47
2018-01-05T05:08:46.085Z,97.25
2018-01-05T05:11:13.721Z,96.99
2018-01-05T05:13:41.345Z,97.06
2018-01-05T05:16:09.065Z,97.12
2018-01-05T05:18:36.693Z,97.08
2018-01-05T05:21:04.294Z,97.45
2018-01-05T05:23:31.889Z,97.43
2018-01-05T05:25:59.542Z,97.45
2018-01-05T05:28:27.129Z,97.17
2018-01-05T05:30:54.810Z,96.86
2018-01-05T05:33:22.424Z,97.01
2018-01-05T05:35:49.998Z,97.38
2018-01-05T05:38:17.571Z,97.82
2018-01-05T05:40:45.188Z,98.18
2018-01-05T05:43:12.773Z,97.96
2018-01-05T05:45:40.369Z,98.31
2018-01-05T05:48:07.982Z,98.53
2018-01-05T05:50:35.564Z,98.40
2018-01-05T05:53:03.155Z,98.02
2018-01-05T05:55:30.789Z,98.11
2018-01-05T05:57:58.377Z,98.03
2018-01-05T06:00:25.979Z,98.06
2018-01-05T06:02:53.620Z,98.55
2018-01-05T06:05:21.175Z,98.94
2018-01-05T06:07:48.754Z,98.64
2018-01-05T06:10:16.383Z,98.16
2018-01-05T06:12:43.956Z,97.98
2018-01-05T06:15:11.538Z,96.97
2018-01-05T06:17:39.146Z,97.16
2018-01-05T06:20:06.756Z,96.98
2018-01-05T06:22:34.351Z,96.87
2018-01-05T06:25:01.995Z,96.85
2018-01-05T06:27:29.577Z,96.24
2018-01-05T06:29:57.189Z,97.09
2018-01-05T06:32:24.843Z,100.00
2018-01-05T06:34:52.462Z,100.00
2018-01-05T06:37:20.061Z,100.00
2018-01-05T06:39:47.685Z,99.98
2018-01-05T06:42:15.267Z,100.00
2018-01-05T06:44:42.835Z,98.11
2018-01-05T06:47:10.486Z,96.66
2018-01-05T06:49:38.074Z,92.90
2018-01-05T06:52:05.660Z,88.93
2018-01-05T06:54:33.290Z,83.59
2018-01-05T06:57:00.867Z,82.42
2018-01-05T06:59:28.437Z,86.18
2018-01-05T07:01:56.060Z,82.04
2018-01-05T07:04:23.635Z,81.04
2018-01-05T07:06:51.232Z,77.03
2018-01-05T07:09:18.896Z,71.26
2018-01-05T07:11:46.480Z,72.06
2018-01-05T07:14:14.055Z,68.04
2018-01-05T07:16:41.679Z,62.44
2018-01-05T07:19:09.254Z,69.83
2018-01-05T07:21:36.813Z,63.23
2018-01-05T07:24:04.434Z,57.97
2018-01-05T07:26:32.008Z,56.71
2018-01-05T07:28:59.580Z,55.21
2018-01-05T07:31:27.189Z,55.39
2018-01-05T07:33:54.781Z,57.51
2018-01-05T07:36:22.351Z,58.09
2018-01-05T07:38:50.007Z,58.31
2018-01-05T07:41:17.584Z,58.21
2018-01-05T07:43:45.186Z,56.82
2018-01-05T07:46:12.815Z,55.88
2018-01-05T07:48:40.442Z,57.12
2018-01-05T07:51:08.037Z,54.58
2018-01-05T07:53:35.656Z,54.67
2018-01-05T07:56:03.250Z,54.93
2018-01-05T07:58:30.902Z,54.90
2018-01-05T08:00:58.521Z,53.33
2018-01-05T08:03:26.105Z,52.40
2018-01-05T08:05:53.702Z,50.58
2018-01-05T08:08:21.307Z,52.27
2018-01-05T08:10:48.889Z,50.99
2018-01-05T08:13:16.464Z,51.80
2018-01-05T08:15:44.078Z,49.37
2018-01-05T08:18:11.675Z,50.23
2018-01-05T08:20:39.261Z,50.55
2018-01-05T08:23:06.889Z,48.74
2018-01-05T08:25:34.473Z,50.06
2018-01-05T08:28:02.069Z,49.73
2018-01-05T08:30:29.739Z,48.56
2018-01-05T08:32:57.364Z,48.70
2018-01-05T08:35:24.952Z,49.93
2018-01-05T08:37:52.587Z,49.61
2018-01-05T08:40:20.191Z,47.39
2018-01-05T08:42:47.852Z,45.08
2018-01-05T08:45:15.484Z,45.69
2018-01-05T08:47:43.123Z,45.18
2018-01-05T08:50:10.720Z,45.49
2018-01-05T08:52:38.332Z,46.09
2018-01-05T08:55:05.939Z,46.19
2018-01-05T08:57:33.540Z,45.81
2018-01-05T09:00:01.219Z,45.20
2018-01-05T09:02:28.820Z,44.40
2018-01-05T09:04:56.406Z,42.96
2018-01-05T09:07:24.030Z,46.28
2018-01-05T09:09:51.620Z,46.06
2018-01-05T09:12:19.199Z,43.88
2018-01-05T09:14:46.803Z,43.47
2018-01-05T09:17:14.427Z,42.71
2018-01-05T09:19:42.875Z,44.71
2018-01-05T09:22:10.510Z,43.06
2018-01-05T09:24:38.093Z,42.07
2018-01-05T09:27:05.664Z,42.09
2018-01-05T09:29:33.297Z,43.35
2018-01-05T09:32:02.271Z,41.19
2018-01-05T09:34:29.858Z,38.74
2018-01-05T09:36:57.480Z,40.22
2018-01-05T09:39:25.064Z,42.25
2018-01-05T09:41:52.648Z,41.53
2018-01-05T09:44:20.263Z,41.52
2018-01-05T09:46:47.848Z,40.35
2018-01-05T09:49:15.427Z,40.80
2018-01-05T09:51:43.069Z,40.69
2018-01-05T09:54:10.767Z,39.61
2018-01-05T09:56:38.369Z,41.25
2018-01-05T09:59:05.996Z,41.21
2018-01-05T10:01:33.576Z,38.49
2018-01-05T10:04:01.145Z,40.87
2018-01-05T10:06:28.782Z,38.18
2018-01-05T10:08:56.362Z,37.72
2018-01-05T10:11:23.966Z,37.81
2018-01-05T10:13:51.621Z,35.81
2018-01-05T10:16:19.222Z,36.31
2018-01-05T10:18:46.814Z,35.25
2018-01-05T10:21:14.458Z,36.59
2018-01-05T10:23:42.053Z,35.28
2018-01-05T10:26:09.642Z,34.89
2018-01-05T10:28:37.256Z,34.75
2018-01-05T10:31:04.838Z,35.80
2018-01-05T10:33:32.405Z,34.40
2018-01-05T10:36:00.028Z,35.33
2018-01-05T10:38:27.614Z,35.71
2018-01-05T10:40:55.268Z,35.89
2018-01-05T10:43:22.930Z,35.21
2018-01-05T10:45:50.521Z,35.57
2018-01-05T10:48:18.145Z,33.96
2018-01-05T10:50:45.755Z,33.39
2018-01-05T10:53:13.334Z,35.54
2018-01-05T10:55:40.993Z,32.73
2018-01-05T10:58:08.605Z,33.46
2018-01-05T11:00:36.203Z,32.71
2018-01-05T11:03:03.810Z,34.02
2018-01-05T11:05:31.470Z,37.20
2018-01-05T11:07:59.088Z,37.77
2018-01-05T11:10:26.741Z,38.65
2018-01-05T11:12:54.359Z,40.77
2018-01-05T11:15:21.941Z,41.54
2018-01-05T11:17:49.509Z,41.11
2018-01-05T11:20:17.123Z,41.79
2018-01-05T11:22:44.696Z,40.72
2018-01-05T11:25:12.265Z,42.28
2018-01-05T11:27:39.982Z,42.72
2018-01-05T11:30:07.559Z,42.88
2018-01-05T11:32:35.134Z,44.58
2018-01-05T11:35:02.741Z,43.71
2018-01-05T11:37:30.312Z,44.38
2018-01-05T11:39:57.877Z,45.51
2018-01-05T11:42:25.494Z,44.34
2018-01-05T11:44:53.063Z,42.73
2018-01-05T11:47:20.632Z,42.37
2018-01-05T11:49:48.240Z,42.77
2018-01-05T11:52:15.812Z,41.37
2018-01-05T11:54:43.409Z,40.82
2018-01-05T11:57:11.068Z,40.35
2018-01-05T11:59:38.641Z,40.99
2018-01-05T12:02:06.205Z,41.09
2018-01-05T12:04:33.829Z,40.55
2018-01-05T12:07:01.398Z,40.50
2018-01-05T12:09:28.980Z,40.65
2018-01-05T12:11:56.600Z,42.01
2018-01-05T12:14:24.224Z,41.28
2018-01-05T12:16:51.807Z,41.94
2018-01-05T12:19:19.415Z,42.63
2018-01-05T12:21:47.003Z,44.73
2018-01-05T12:24:14.592Z,45.40
2018-01-05T12:26:42.227Z,44.05
2018-01-05T12:29:09.813Z,42.31
2018-01-05T12:31:37.370Z,41.19
2018-01-05T12:34:04.995Z,38.03
2018-01-05T12:36:32.567Z,36.82
2018-01-05T12:39:00.139Z,44.07
2018-01-05T12:41:27.747Z,41.58
2018-01-05T12:43:55.350Z,42.60
2018-01-05T12:46:22.947Z,47.16
2018-01-05T12:48:50.626Z,47.27
2018-01-05T12:51:18.205Z,47.64
2018-01-05T12:53:45.777Z,47.61
2018-01-05T12:56:13.390Z,47.02
2018-01-05T12:58:41.004Z,45.59
2018-01-05T13:01:08.591Z,46.07
2018-01-05T13:03:36.272Z,46.98
2018-01-05T13:06:03.838Z,46.71
2018-01-05T13:08:31.416Z,46.32
2018-01-05T13:10:59.028Z,44.91
2018-01-05T13:13:26.598Z,47.08
2018-01-05T13:15:54.169Z,52.36
2018-01-05T13:18:21.818Z,53.80
2018-01-05T13:20:49.391Z,57.06
2018-01-05T13:23:16.966Z,55.79
2018-01-05T13:25:44.580Z,54.15
2018-01-05T13:28:12.343Z,55.67
2018-01-05T13:30:39.950Z,56.27
2018-01-05T13:33:07.579Z,55.94
2018-01-05T13:35:35.168Z,55.04
2018-01-05T13:38:02.739Z,55.05
2018-01-05T13:40:30.360Z,56.83
2018-01-05T13:42:57.917Z,58.80
2018-01-05T13:45:25.541Z,61.84
2018-01-05T13:47:53.180Z,61.29
2018-01-05T13:50:20.781Z,61.69
2018-01-05T13:52:48.362Z,60.68
2018-01-05T13:55:15.980Z,59.34
2018-01-05T13:57:43.559Z,59.46
2018-01-05T14:00:11.239Z,58.61
2018-01-05T14:02:38.864Z,61.34
2018-01-05T14:05:06.520Z,63.32
2018-01-05T14:07:35.172Z,64.23
2018-01-05T14:10:02.816Z,64.90
2018-01-05T14:12:30.440Z,64.69
2018-01-05T14:14:58.052Z,61.50
2018-01-05T14:17:26.419Z,60.39
2018-01-05T14:19:53.991Z,64.71
2018-01-05T14:22:21.654Z,62.79
2018-01-05T14:24:49.262Z,63.17
2018-01-05T14:27:16.866Z,62.66
2018-01-05T14:29:44.466Z,65.20
2018-01-05T14:32:12.195Z,64.79
2018-01-05T14:34:39.793Z,67.83
2018-01-05T14:37:07.386Z,67.51
2018-01-05T14:39:35.011Z,69.36
2018-01-05T14:42:02.614Z,66.10
2018-01-05T14:44:30.223Z,67.58
2018-01-05T14:46:57.850Z,67.26
2018-01-05T14:49:25.433Z,70.04
2018-01-05T14:51:53.042Z,70.46
2018-01-05T14:54:20.680Z,71.72
2018-01-05T14:56:48.470Z,73.57
2018-01-05T14:59:16.057Z,71.68
2018-01-05T15:01:43.689Z,71.62
2018-01-05T15:04:11.280Z,71.61
2018-01-05T15:06:38.866Z,71.75
2018-01-05T15:09:06.499Z,70.43
2018-01-05T15:11:34.086Z,71.65
2018-01-05T15:14:01.673Z,71.08
2018-01-05T15:16:29.300Z,71.25
2018-01-05T15:18:56.895Z,71.66
2018-01-05T15:21:24.474Z,71.68
2018-01-05T15:23:52.112Z,74.65
2018-01-05T15:26:19.679Z,72.98
2018-01-05T15:28:47.234Z,71.88
2018-01-05T15:31:14.864Z,73.61
2018-01-05T15:33:42.457Z,71.80
2018-01-05T15:36:10.043Z,70.73
2018-01-05T15:38:37.676Z,70.51
2018-01-05T15:41:05.261Z,73.11
2018-01-05T15:43:32.827Z,75.05
2018-01-05T15:46:00.543Z,76.29
2018-01-05T15:48:28.175Z,74.98
2018-01-05T15:50:55.805Z,75.49
2018-01-05T15:53:23.469Z,76.41
2018-01-05T15:55:51.048Z,76.62
2018-01-05T15:58:18.629Z,73.93
2018-01-05T16:00:46.322Z,75.92
2018-01-05T16:03:13.895Z,75.31
2018-01-05T16:05:41.461Z,75.08
2018-01-05T16:08:09.117Z,78.49
2018-01-05T16:10:36.749Z,77.82
2018-01-05T16:13:04.472Z,77.16
2018-01-05T16:15:32.124Z,75.37
2018-01-05T16:17:59.729Z,78.62
2018-01-05T16:20:27.296Z,79.53
2018-01-05T16:22:54.900Z,76.04
2018-01-05T16:25:22.472Z,77.77
2018-01-05T16:27:50.042Z,78.52
2018-01-05T16:30:17.672Z,78.95
2018-01-05T16:32:45.242Z,77.68
2018-01-05T16:35:12.863Z,78.01
2018-01-05T16:37:40.498Z,77.18
2018-01-05T16:40:08.091Z,77.21
2018-01-05T16:42:35.655Z,76.66
2018-01-05T16:45:03.259Z,77.49
2018-01-05T16:47:30.831Z,77.20
2018-01-05T16:49:58.441Z,74.72
2018-01-05T16:52:26.075Z,74.55
2018-01-05T16:54:53.673Z,78.71
2018-01-05T16:57:21.243Z,78.39
2018-01-05T16:59:48.861Z,77.96
2018-01-05T17:02:16.448Z,76.85
2018-01-05T17:04:44.100Z,77.40
2018-01-05T17:07:11.714Z,77.01
2018-01-05T17:09:39.311Z,77.63
2018-01-05T17:12:06.926Z,76.83
2018-01-05T17:14:34.615Z,75.18
2018-01-05T17:17:02.175Z,75.19
2018-01-05T17:19:29.768Z,78.23
2018-01-05T17:21:57.418Z,78.74
2018-01-05T17:24:24.994Z,76.24
2018-01-05T17:26:52.566Z,78.60
2018-01-05T17:29:20.220Z,76.45
2018-01-05T17:31:47.788Z,75.29
2018-01-05T17:34:15.358Z,78.74
2018-01-05T17:36:42.973Z,76.42
2018-01-05T17:39:10.632Z,77.16
2018-01-05T17:41:38.204Z,78.87
2018-01-05T17:44:05.823Z,77.79
2018-01-05T17:46:33.415Z,76.41
2018-01-05T17:49:01.002Z,77.80
2018-01-05T17:51:28.623Z,75.90
2018-01-05T17:53:56.193Z,75.74
2018-01-05T17:56:23.757Z,76.19
2018-01-05T17:58:51.361Z,77.37
2018-01-05T18:01:18.922Z,77.72
2018-01-05T18:03:46.489Z,77.80
2018-01-05T18:06:14.116Z,78.71
2018-01-05T18:08:41.686Z,78.75
2018-01-05T18:11:09.364Z,78.83
2018-01-05T18:13:37.180Z,75.68
2018-01-05T18:16:04.770Z,78.08
2018-01-05T18:18:32.422Z,78.09
2018-01-05T18:21:00.139Z,78.96
2018-01-05T18:23:27.734Z,78.14
2018-01-05T18:25:55.293Z,77.84
2018-01-05T18:28:22.895Z,77.16
2018-01-05T18:30:50.489Z,78.21
2018-01-05T18:33:18.101Z,77.72
2018-01-05T18:35:45.719Z,77.44
2018-01-05T18:38:13.299Z,77.54
2018-01-05T18:40:40.914Z,77.26
2018-01-05T18:43:08.537Z,77.66
2018-01-05T18:45:36.170Z,76.56
2018-01-05T18:48:03.754Z,76.09
2018-01-05T18:50:31.316Z,79.29
2018-01-05T18:52:58.959Z,78.73
2018-01-05T18:55:26.538Z,78.41
2018-01-05T18:57:54.159Z,77.80
2018-01-05T19:00:21.734Z,78.84
2018-01-05T19:02:49.301Z,78.77
2018-01-05T19:05:16.917Z,78.44
2018-01-05T19:07:44.524Z,76.30
2018-01-05T19:10:12.096Z,78.73
2018-01-05T19:12:39.689Z,77.63
2018-01-05T19:15:07.247Z,77.28
2018-01-05T19:17:34.848Z,78.16
2018-01-05T19:20:02.461Z,78.21
2018-01-05T19:22:30.060Z,77.41
2018-01-05T19:24:57.652Z,78.50
2018-01-05T19:27:25.265Z,79.08
2018-01-05T19:29:52.846Z,77.94
2018-01-05T19:32:20.440Z,78.61
2018-01-05T19:34:48.068Z,81.00
2018-01-05T19:37:15.649Z,80.41
2018-01-05T19:39:43.254Z,81.72
2018-01-05T19:42:10.938Z,81.93
2018-01-05T19:44:38.537Z,85.39
2018-01-05T19:47:06.129Z,85.63
2018-01-05T19:49:33.750Z,84.04
2018-01-05T19:52:01.308Z,84.00
2018-01-05T19:54:28.918Z,85.86
2018-01-05T19:56:56.510Z,86.39
2018-01-05T19:59:24.100Z,86.47
2018-01-05T20:01:51.681Z,86.69
2018-01-05T20:04:19.349Z,84.56
2018-01-05T20:06:46.964Z,85.07
2018-01-05T20:09:14.585Z,87.00
2018-01-05T20:11:42.206Z,86.50
2018-01-05T20:14:09.954Z,86.21
2018-01-05T20:16:37.704Z,84.79
2018-01-05T20:19:06.554Z,85.31
2018-01-05T20:21:34.150Z,86.46
2018-01-05T20:24:02.836Z,86.42
2018-01-05T20:26:34.839Z,86.33
2018-01-05T20:29:06.027Z,84.27
2018-01-05T20:31:33.828Z,83.50
2018-01-05T20:34:01.404Z,85.48
2018-01-05T20:36:28.956Z,88.47
2018-01-05T20:38:56.568Z,90.08
2018-01-05T20:41:24.292Z,90.29
2018-01-05T20:43:51.919Z,90.42
2018-01-05T20:46:19.475Z,89.84
2018-01-05T20:48:47.048Z,89.73
2018-01-05T20:51:14.634Z,89.39
2018-01-05T20:53:42.191Z,89.58
2018-01-05T20:56:09.768Z,89.45
2018-01-05T20:58:37.364Z,89.73
2018-01-05T21:01:04.936Z,90.17
2018-01-05T21:03:32.601Z,90.81
2018-01-05T21:06:00.195Z,90.94
2018-01-05T21:08:27.762Z,91.16
2018-01-05T21:10:55.341Z,90.89
2018-01-05T21:13:22.922Z,90.66
2018-01-05T21:15:50.530Z,90.49
2018-01-05T21:18:18.096Z,90.61
2018-01-05T21:20:45.682Z,91.22
2018-01-05T21:23:13.341Z,92.07
2018-01-05T21:25:41.088Z,92.62
2018-01-05T21:28:08.738Z,92.73
2018-01-05T21:30:36.342Z,92.71
2018-01-05T21:33:03.904Z,92.36
2018-01-05T21:35:31.467Z,92.21
2018-01-05T21:37:59.088Z,92.19
2018-01-05T21:40:26.690Z,92.11
2018-01-05T21:42:54.289Z,92.38
2018-01-05T21:45:21.922Z,92.65
2018-01-05T21:47:49.499Z,93.08
2018-01-05T21:50:17.078Z,93.48
2018-01-05T21:52:44.699Z,94.12
2018-01-05T21:55:12.260Z,94.60
2018-01-05T21:57:39.834Z,94.40
2018-01-05T22:00:07.511Z,94.33
2018-01-05T22:02:35.089Z,95.12
2018-01-05T22:05:02.673Z,94.77
2018-01-05T22:07:30.317Z,94.83
2018-01-05T22:09:57.893Z,95.15
2018-01-05T22:12:25.467Z,94.31
2018-01-05T22:14:53.089Z,94.13
2018-01-05T22:17:20.653Z,94.00
2018-01-05T22:19:48.222Z,93.41
2018-01-05T22:22:15.856Z,93.37
2018-01-05T22:24:43.446Z,93.76
2018-01-05T22:27:11.007Z,93.71
2018-01-05T22:29:38.636Z,93.50
2018-01-05T22:32:06.221Z,93.52
2018-01-05T22:34:33.784Z,93.66
2018-01-05T22:37:01.397Z,93.34
2018-01-05T22:39:28.963Z,93.19
2018-01-05T22:41:56.526Z,93.28
2018-01-05T22:44:24.117Z,93.69
2018-01-05T22:46:51.684Z,93.81
2018-01-05T22:49:19.264Z,94.01
2018-01-05T22:51:46.884Z,94.58
2018-01-05T22:54:14.465Z,94.04
2018-01-05T22:56:42.049Z,94.04
2018-01-05T22:59:09.665Z,93.98
2018-01-05T23:01:37.262Z,94.08
2018-01-05T23:04:04.858Z,94.00
2018-01-05T23:06:32.461Z,93.86
2018-01-05T23:09:00.041Z,93.90
2018-01-05T23:11:27.636Z,93.77
2018-01-05T23:13:55.231Z,93.97
2018-01-05T23:16:22.859Z,93.93
2018-01-05T23:18:50.433Z,94.54
2018-01-05T23:21:18.018Z,94.79
2018-01-05T23:23:45.633Z,96.02
2018-01-05T23:26:13.257Z,96.79
2018-01-05T23:28:40.839Z,97.07
2018-01-05T23:31:08.440Z,97.03
2018-01-05T23:33:36.096Z,96.30
2018-01-05T23:36:03.685Z,95.74
2018-01-05T23:38:31.280Z,95.69
2018-01-05T23:40:58.867Z,96.16
2018-01-05T23:43:26.454Z,96.02
2018-01-05T23:45:54.061Z,95.96
2018-01-05T23:48:21.642Z,95.69
2018-01-05T23:50:49.229Z,95.80
2018-01-05T23:53:16.844Z,95.83
2018-01-05T23:55:44.426Z,95.83
2018-01-05T23:58:12.045Z,95.75
